CheckWX is a tool to help pilots better visualize weather data.  It is not intended as a substitute for an official pre-flight weather briefing.

13:01:27 UTC

KBDN METAR
Bend Municipal Airport
Bend, Oregon, USA
Current

6 mins ago

KBDN 191255Z AUTO 00000KT 10SM BKN020 OVC050 09/08 A3002 RMK AO2
Observed
Sep-19 @ 12:55 UTC
Visibility
10 SM
Flight Rules
MVFR
Cloud Levels
  • Broken at 2,000' AGL
  • Overcast at 5,000' AGL
Temperature
C / 48°F
Dewpoint
C / 46°F
Humidity
94%
Altimeter
30.02" Hg
Pressure
1016.62 hPa
Previous

26 mins ago

KBDN 191235Z AUTO 00000KT 10SM OVC020 09/08 A3001 RMK AO2
Observed
Sep-19 @ 12:35 UTC
Visibility
10 SM
Flight Rules
MVFR
Cloud Levels
  • Overcast at 2,000' AGL
Temperature
C / 48°F
Dewpoint
C / 46°F
Humidity
94%
Altimeter
30.01" Hg
Pressure
1016.22 hPa
Previous

46 mins ago

KBDN 191215Z AUTO 00000KT 10SM BKN021 OVC050 09/08 A3001 RMK AO2
Observed
Sep-19 @ 12:15 UTC
Visibility
10 SM
Flight Rules
MVFR
Cloud Levels
  • Broken at 2,100' AGL
  • Overcast at 5,000' AGL
Temperature
C / 48°F
Dewpoint
C / 46°F
Humidity
94%
Altimeter
30.01" Hg
Pressure
1016.22 hPa